Capt E. Frank Thompson — WDG2784 — position and weather

sailwx.info

Track history (hours):
 
Tides and Currents Weather Stations Pressure Air Temp Water Temp Dewpoint Dewpoint Depression Visibility Wind Speed Wind Dir Waves Ship Positions

Capt E. Frank Thompson

Owner: State of Maine, O.I.T., Radio Operations, Augusta, ME. More information available from US FCC via Universal Licensing System and Coast Guard Vessel Documentation Center.

Last reported at 2018-Jul-21 19:30 UTC. Time now 2018-Jul-21 19:26 UTC.
Position N 44°05' W 068°58'.

Length 47 m.

Type: Passenger vessel. MMSI: 367519240.

Date/timePositionNaut miles runAvg speedWind from/ knotsBaromVisibWave heightAir tempDewpointWater temp
2018-Jul-21 19:30N 44°05' W 068°58'611.3
2018-Jul-21 19:01N 44°06' W 069°06'0 0.7
2018-Jul-21 18:25N 44°06' W 069°06'2 3.7
2018-Jul-21 18:00N 44°06' W 069°04'611.8
2018-Jul-21 17:30N 44°05' W 068°56'5 2.5
2018-Jul-21 15:36N 44°02' W 068°51'110.0
2018-Jul-21 15:30N 44°03' W 068°52'611.8
2018-Jul-21 15:00N 44°05' W 068°59'5 4.9
2018-Jul-21 13:55N 44°06' W 069°06'510.9
2018-Jul-21 13:29N 44°06' W 068°60'511.2
2018-Jul-21 13:00N 44°03' W 068°53'2 1.6
2018-Jul-21 12:04N 44°02' W 068°51'111.5
2018-Jul-21 11:59N 44°03' W 068°52'611.7
2018-Jul-21 11:30N 44°06' W 068°59'510.4
2018-Jul-21 11:00N 44°06' W 069°06'0 0.0
2018-Jul-20 21:52N 44°06' W 069°06'1 3.8
2018-Jul-20 21:30N 44°06' W 069°05'611.9
2018-Jul-20 21:00N 44°05' W 068°57'5 9.8
2018-Jul-20 20:29N 44°03' W 068°50'0 0.0
2018-Jul-20 20:00N 44°03' W 068°50'4 9.0
2018-Jul-20 19:30N 44°05' W 068°56'611.7
2018-Jul-20 19:00N 44°06' W 069°04'2 4.2
2018-Jul-20 18:30N 44°06' W 069°06'1 1.9
2018-Jul-20 18:00N 44°06' W 069°05'612.1
2018-Jul-20 17:30N 44°05' W 068°57'510.3
2018-Jul-20 16:59N 44°03' W 068°50'0 0.0
2018-Jul-20 16:28N 44°03' W 068°50'0 0.0
2018-Jul-20 16:00N 44°03' W 068°50'1 1.9
2018-Jul-20 15:30N 44°03' W 068°52'611.6
2018-Jul-20 15:00N 44°05' W 068°59'611.1
2018-Jul-20 14:30N 44°06' W 069°06'0 0.0
2018-Jul-20 14:01N 44°06' W 069°06'510.4
2018-Jul-20 13:30N 44°06' W 068°59'611.4
2018-Jul-20 13:00N 44°03' W 068°52'1 2.5
2018-Jul-20 12:28N 44°03' W 068°50'4 7.7
2018-Jul-20 12:00N 44°04' W 068°55'612.2
2018-Jul-20 11:31N 44°06' W 069°03'3 5.4
2018-Jul-20 11:00N 44°06' W 069°06'0 0.1
2018-Jul-20 10:30N 44°06' W 069°06'0 0.0
2018-Jul-19 21:52N 44°06' W 069°06'2 4.4
2018-Jul-19 21:30N 44°06' W 069°04'611.7
2018-Jul-19 21:00N 44°05' W 068°56'5 4.9
2018-Jul-19 20:03N 44°02' W 068°51'111.0
2018-Jul-19 19:59N 44°03' W 068°52'611.6
2018-Jul-19 19:30N 44°05' W 068°59'611.2
2018-Jul-19 19:00N 44°06' W 069°06'0 0.5
2018-Jul-19 18:21N 44°06' W 069°06'1 3.7
2018-Jul-19 18:00N 44°06' W 069°05'611.9
2018-Jul-19 17:30N 44°05' W 068°57'5 3.5
2018-Jul-19 16:02N 44°03' W 068°50'0 9.2
2018-Jul-19 15:59N 44°02' W 068°51'511.1
2018-Jul-19 15:30N 44°05' W 068°57'611.9
2018-Jul-19 14:58N 44°06' W 069°06'0 0.3
2018-Jul-19 14:00N 44°06' W 069°06'4 8.1
2018-Jul-19 13:30N 44°06' W 069°01'611.6
2018-Jul-19 13:00N 44°04' W 068°53'2 2.3
2018-Jul-19 12:05N 44°02' W 068°51'111.0
2018-Jul-19 12:00N 44°03' W 068°52'612.0
2018-Jul-19 11:30N 44°05' W 068°59'5 0.4
2018-Jul-18 21:52N 44°06' W 069°06'1 4.1
2018-Jul-18 21:30N 44°06' W 069°04'611.7
2018-Jul-18 20:58N 44°05' W 068°56'4 4.1
2018-Jul-18 19:56N 44°02' W 068°51'511.7
2018-Jul-18 19:28N 44°05' W 068°57'511.7
2018-Jul-18 19:00N 44°06' W 069°05'1 1.7
2018-Jul-18 18:11N 44°06' W 069°06'1 6.2
2018-Jul-18 17:59N 44°06' W 069°05'612.1
2018-Jul-18 17:30N 44°05' W 068°57'5 2.3
2018-Jul-18 15:33N 44°03' W 068°52'111.7
2018-Jul-18 15:27N 44°03' W 068°53'511.3
2018-Jul-18 15:00N 44°06' W 068°59'5 5.4
2018-Jul-18 14:02N 44°06' W 069°06'5 9.9
2018-Jul-18 13:30N 44°06' W 068°59'7 5.0
2018-Jul-18 12:08N 44°02' W 068°51'111.1
2018-Jul-18 12:00N 44°03' W 068°52'611.9
2018-Jul-18 11:30N 44°06' W 068°60'4 0.3
2018-Jul-17 21:39N 44°06' W 069°06'210.7
2018-Jul-17 21:30N 44°06' W 069°04'6 2.8
2018-Jul-17 19:33N 44°05' W 068°56'211.9
2018-Jul-17 19:25N 44°05' W 068°58'6 4.4
2018-Jul-17 18:08N 44°06' W 069°06'1 8.2
2018-Jul-17 18:00N 44°06' W 069°05'611.8
2018-Jul-17 17:30N 44°05' W 068°57'5 2.7
2018-Jul-17 15:38N 44°02' W 068°51'110.8
2018-Jul-17 15:30N 44°03' W 068°53'510.6
2018-Jul-17 15:00N 44°06' W 068°59'5 5.1
2018-Jul-17 13:58N 44°06' W 069°06'510.0
2018-Jul-17 13:30N 44°06' W 069°00'7 5.5
2018-Jul-17 12:09N 44°02' W 068°51'210.4
2018-Jul-17 11:59N 44°03' W 068°53'511.3
2018-Jul-17 11:30N 44°06' W 068°60'5 0.4
2018-Jul-16 21:45N 44°06' W 069°06'2 6.8
2018-Jul-16 21:30N 44°06' W 069°04'611.4
2018-Jul-16 21:00N 44°05' W 068°56'5 4.1
2018-Jul-16 19:51N 44°02' W 068°51'411.7
2018-Jul-16 19:29N 44°05' W 068°56'612.1
2018-Jul-16 19:00N 44°06' W 069°04'2 2.1
2018-Jul-16 18:07N 44°06' W 069°06'1 7.5
2018-Jul-16 18:00N 44°06' W 069°05'611.7
2018-Jul-16 17:30N 44°05' W 068°57'5 3.5
2018-Jul-16 16:03N 44°02' W 068°51'110.7
2018-Jul-16 16:00N 44°03' W 068°52'611.3
2018-Jul-16 15:30N 44°05' W 068°59'510.8
2018-Jul-16 15:00N 44°06' W 069°06'0 0.2
2018-Jul-16 14:05N 44°06' W 069°06'1 6.5
2018-Jul-16 14:00N 44°06' W 069°06'611.8
2018-Jul-16 13:30N 44°05' W 068°58'6 4.2
2018-Jul-16 12:11N 44°02' W 068°51'2 9.9
2018-Jul-16 12:00N 44°04' W 068°53'611.2
2018-Jul-16 11:29N 44°06' W 069°01'4 4.5
2018-Jul-16 10:33N 44°06' W 069°06'0 0.3
2018-Jul-16 10:25N 44°06' W 069°06'0 0.0
2018-Jul-15 21:41N 44°06' W 069°06'1 6.9
2018-Jul-15 21:30N 44°06' W 069°05'611.6
2018-Jul-15 21:01N 44°05' W 068°57'5 4.7
2018-Jul-15 19:55N 44°02' W 068°51'512.1
2018-Jul-15 19:30N 44°05' W 068°57'612.4
2018-Jul-15 19:00N 44°06' W 069°05'1 1.3
2018-Jul-15 18:11N 44°06' W 069°06'1 5.4
2018-Jul-15 18:00N 44°06' W 069°05'612.0
2018-Jul-15 17:30N 44°05' W 068°57'5 3.9
2018-Jul-15 16:07N 44°03' W 068°50'1 1.1
2018-Jul-15 15:39N 44°02' W 068°51'211.6
2018-Jul-15 15:29N 44°03' W 068°53'611.5
2018-Jul-15 15:00N 44°06' W 069°00'4 3.9
2018-Jul-15 13:53N 44°06' W 069°06'410.0
2018-Jul-15 13:30N 44°06' W 069°01'612.3
2018-Jul-15 13:00N 44°04' W 068°53'2 2.3
2018-Jul-15 12:08N 44°02' W 068°51'1 9.9
2018-Jul-15 12:00N 44°03' W 068°52'611.1
2018-Jul-15 11:28N 44°06' W 068°60'510.2
2018-Jul-15 10:59N 44°06' W 069°06'0 0.0
2018-Jul-14 21:40N 44°06' W 069°06'1 7.7
2018-Jul-14 21:30N 44°06' W 069°05'611.8
2018-Jul-14 20:59N 44°05' W 068°56'5 6.7
2018-Jul-14 20:16N 44°03' W 068°50'1 1.2
2018-Jul-14 19:48N 44°02' W 068°51'412.0
2018-Jul-14 19:25N 44°05' W 068°56'512.5
2018-Jul-14 18:59N 44°06' W 069°04'2 3.9
2018-Jul-14 18:29N 44°06' W 069°06'1 2.9
2018-Jul-14 17:59N 44°06' W 069°05'611.6
2018-Jul-14 17:29N 44°05' W 068°57'510.1
2018-Jul-14 16:59N 44°03' W 068°50'0 0.0
2018-Jul-14 16:08N 44°03' W 068°50'0 0.0
2018-Jul-14 15:53N 44°03' W 068°50'2 5.8
2018-Jul-14 15:30N 44°04' W 068°53'611.6
2018-Jul-14 14:59N 44°06' W 069°01'4 5.5
2018-Jul-14 14:14N 44°06' W 069°06'4 5.3
2018-Jul-14 13:30N 44°06' W 069°01'612.2
2018-Jul-14 13:00N 44°04' W 068°53'2 2.7
2018-Jul-14 12:09N 44°02' W 068°51'110.3
2018-Jul-14 12:00N 44°03' W 068°52'611.2
2018-Jul-14 11:30N 44°05' W 068°59'5 6.3
2018-Jul-14 10:41N 44°06' W 069°06'0 0.1
2018-Jul-14 10:28N 44°06' W 069°06'0 0.0
2018-Jul-13 21:40N 44°06' W 069°06'2 7.1
2018-Jul-13 21:27N 44°06' W 069°04'512.1
2018-Jul-13 21:00N 44°05' W 068°57'510.5
2018-Jul-13 20:30N 44°03' W 068°50'1 1.1
2018-Jul-13 19:59N 44°02' W 068°51'611.7
2018-Jul-13 19:30N 44°05' W 068°58'611.6
2018-Jul-13 19:00N 44°06' W 069°06'0 0.7
2018-Jul-13 18:22N 44°06' W 069°06'3 8.8
2018-Jul-13 18:00N 44°06' W 069°02'611.6
2018-Jul-13 17:30N 44°04' W 068°54'3 4.3
2018-Jul-13 16:45N 44°03' W 068°50'1 2.0
2018-Jul-13 16:30N 44°02' W 068°51'510.2
2018-Jul-13 15:59N 44°06' W 068°56'3 5.5
2018-Jul-13 15:30N 44°07' W 068°53'510.2
2018-Jul-13 15:00N 44°06' W 068°60'5 9.1
2018-Jul-13 14:27N 44°06' W 069°06'4 4.6
2018-Jul-13 13:29N 44°06' W 069°00'612.0
2018-Jul-13 12:57N 44°03' W 068°52'1 1.7
2018-Jul-13 12:12N 44°02' W 068°51'210.8
2018-Jul-13 12:00N 44°03' W 068°53'611.4
2018-Jul-13 11:30N 44°06' W 069°00'4 8.8
2018-Jul-13 11:00N 44°06' W 069°06'0 0.0
2018-Jul-12 21:44N 44°06' W 069°06'2 6.6
2018-Jul-12 21:29N 44°06' W 069°04'611.8
2018-Jul-12 21:00N 44°05' W 068°56'5 4.6
2018-Jul-12 19:59N 44°02' W 068°51'611.3
2018-Jul-12 19:30N 44°05' W 068°58'611.6
2018-Jul-12 18:58N 44°06' W 069°06'0 0.7
2018-Jul-12 18:26N 44°06' W 069°06'1 2.9
2018-Jul-12 18:00N 44°06' W 069°05'611.9
2018-Jul-12 17:31N 44°05' W 068°57'5 3.5
2018-Jul-12 16:10N 44°02' W 068°51'212.0
2018-Jul-12 15:59N 44°04' W 068°54'612.1
2018-Jul-12 15:30N 44°06' W 069°01'4 2.8
2018-Jul-12 14:10N 44°06' W 069°06'1 5.6
2018-Jul-12 14:00N 44°06' W 069°05'612.0
2018-Jul-12 13:30N 44°05' W 068°57'5 5.0
2018-Jul-12 12:25N 44°03' W 068°50'4 9.3
2018-Jul-12 12:00N 44°04' W 068°55'610.9
2018-Jul-12 11:30N 44°06' W 069°03'3 0.2
2018-Jul-11 21:39N 44°06' W 069°06'1 6.9
2018-Jul-11 21:31N 44°06' W 069°05'611.8
2018-Jul-11 21:00N 44°05' W 068°57'5 5.4
2018-Jul-11 20:02N 44°02' W 068°51'1 9.5
2018-Jul-11 19:58N 44°03' W 068°52'511.0
2018-Jul-11 19:30N 44°05' W 068°58'  
Track history (hours):
 
Tides and Currents Weather Stations Pressure Air Temp Water Temp Dewpoint Dewpoint Depression Visibility Wind Speed Wind Dir Waves Ship Positions

Capt E. Frank Thompson

Owner: State of Maine, O.I.T., Radio Operations, Augusta, ME. More information available from US FCC via Universal Licensing System and Coast Guard Vessel Documentation Center.

Last reported at 2018-Jul-21 19:30 UTC. Time now 2018-Jul-21 19:26 UTC.
Position N 44°05' W 068°58'.

Length 47 m.

Type: Passenger vessel. MMSI: 367519240.

Date/timePositionNaut miles runAvg speedWind from/ knotsBaromVisibWave heightAir tempDewpointWater temp
2018-Jul-21 19:30N 44°05' W 068°58'611.3
2018-Jul-21 19:01N 44°06' W 069°06'0 0.7
2018-Jul-21 18:25N 44°06' W 069°06'2 3.7
2018-Jul-21 18:00N 44°06' W 069°04'611.8
2018-Jul-21 17:30N 44°05' W 068°56'5 2.5
2018-Jul-21 15:36N 44°02' W 068°51'110.0
2018-Jul-21 15:30N 44°03' W 068°52'611.8
2018-Jul-21 15:00N 44°05' W 068°59'5 4.9
2018-Jul-21 13:55N 44°06' W 069°06'510.9
2018-Jul-21 13:29N 44°06' W 068°60'511.2
2018-Jul-21 13:00N 44°03' W 068°53'2 1.6
2018-Jul-21 12:04N 44°02' W 068°51'111.5
2018-Jul-21 11:59N 44°03' W 068°52'611.7
2018-Jul-21 11:30N 44°06' W 068°59'510.4
2018-Jul-21 11:00N 44°06' W 069°06'0 0.0
2018-Jul-20 21:52N 44°06' W 069°06'1 3.8
2018-Jul-20 21:30N 44°06' W 069°05'611.9
2018-Jul-20 21:00N 44°05' W 068°57'5 9.8
2018-Jul-20 20:29N 44°03' W 068°50'0 0.0
2018-Jul-20 20:00N 44°03' W 068°50'4 9.0
2018-Jul-20 19:30N 44°05' W 068°56'611.7
2018-Jul-20 19:00N 44°06' W 069°04'2 4.2
2018-Jul-20 18:30N 44°06' W 069°06'1 1.9
2018-Jul-20 18:00N 44°06' W 069°05'612.1
2018-Jul-20 17:30N 44°05' W 068°57'510.3
2018-Jul-20 16:59N 44°03' W 068°50'0 0.0
2018-Jul-20 16:28N 44°03' W 068°50'0 0.0
2018-Jul-20 16:00N 44°03' W 068°50'1 1.9
2018-Jul-20 15:30N 44°03' W 068°52'611.6
2018-Jul-20 15:00N 44°05' W 068°59'611.1
2018-Jul-20 14:30N 44°06' W 069°06'0 0.0
2018-Jul-20 14:01N 44°06' W 069°06'510.4
2018-Jul-20 13:30N 44°06' W 068°59'611.4
2018-Jul-20 13:00N 44°03' W 068°52'1 2.5
2018-Jul-20 12:28N 44°03' W 068°50'4 7.7
2018-Jul-20 12:00N 44°04' W 068°55'612.2
2018-Jul-20 11:31N 44°06' W 069°03'3 5.4
2018-Jul-20 11:00N 44°06' W 069°06'0 0.1
2018-Jul-20 10:30N 44°06' W 069°06'0 0.0
2018-Jul-19 21:52N 44°06' W 069°06'2 4.4
2018-Jul-19 21:30N 44°06' W 069°04'611.7
2018-Jul-19 21:00N 44°05' W 068°56'5 4.9
2018-Jul-19 20:03N 44°02' W 068°51'111.0
2018-Jul-19 19:59N 44°03' W 068°52'611.6
2018-Jul-19 19:30N 44°05' W 068°59'611.2
2018-Jul-19 19:00N 44°06' W 069°06'0 0.5
2018-Jul-19 18:21N 44°06' W 069°06'1 3.7
2018-Jul-19 18:00N 44°06' W 069°05'611.9
2018-Jul-19 17:30N 44°05' W 068°57'5 3.5
2018-Jul-19 16:02N 44°03' W 068°50'0 9.2
2018-Jul-19 15:59N 44°02' W 068°51'511.1
2018-Jul-19 15:30N 44°05' W 068°57'611.9
2018-Jul-19 14:58N 44°06' W 069°06'0 0.3
2018-Jul-19 14:00N 44°06' W 069°06'4 8.1
2018-Jul-19 13:30N 44°06' W 069°01'611.6
2018-Jul-19 13:00N 44°04' W 068°53'2 2.3
2018-Jul-19 12:05N 44°02' W 068°51'111.0
2018-Jul-19 12:00N 44°03' W 068°52'612.0
2018-Jul-19 11:30N 44°05' W 068°59'5 0.4
2018-Jul-18 21:52N 44°06' W 069°06'1 4.1
2018-Jul-18 21:30N 44°06' W 069°04'611.7
2018-Jul-18 20:58N 44°05' W 068°56'4 4.1
2018-Jul-18 19:56N 44°02' W 068°51'511.7
2018-Jul-18 19:28N 44°05' W 068°57'511.7
2018-Jul-18 19:00N 44°06' W 069°05'1 1.7
2018-Jul-18 18:11N 44°06' W 069°06'1 6.2
2018-Jul-18 17:59N 44°06' W 069°05'612.1
2018-Jul-18 17:30N 44°05' W 068°57'5 2.3
2018-Jul-18 15:33N 44°03' W 068°52'111.7
2018-Jul-18 15:27N 44°03' W 068°53'511.3
2018-Jul-18 15:00N 44°06' W 068°59'5 5.4
2018-Jul-18 14:02N 44°06' W 069°06'5 9.9
2018-Jul-18 13:30N 44°06' W 068°59'7 5.0
2018-Jul-18 12:08N 44°02' W 068°51'111.1
2018-Jul-18 12:00N 44°03' W 068°52'611.9
2018-Jul-18 11:30N 44°06' W 068°60'4 0.3
2018-Jul-17 21:39N 44°06' W 069°06'210.7
2018-Jul-17 21:30N 44°06' W 069°04'6 2.8
2018-Jul-17 19:33N 44°05' W 068°56'211.9
2018-Jul-17 19:25N 44°05' W 068°58'6 4.4
2018-Jul-17 18:08N 44°06' W 069°06'1 8.2
2018-Jul-17 18:00N 44°06' W 069°05'611.8
2018-Jul-17 17:30N 44°05' W 068°57'5 2.7
2018-Jul-17 15:38N 44°02' W 068°51'110.8
2018-Jul-17 15:30N 44°03' W 068°53'510.6
2018-Jul-17 15:00N 44°06' W 068°59'5 5.1
2018-Jul-17 13:58N 44°06' W 069°06'510.0
2018-Jul-17 13:30N 44°06' W 069°00'7 5.5
2018-Jul-17 12:09N 44°02' W 068°51'210.4
2018-Jul-17 11:59N 44°03' W 068°53'511.3
2018-Jul-17 11:30N 44°06' W 068°60'5 0.4
2018-Jul-16 21:45N 44°06' W 069°06'2 6.8
2018-Jul-16 21:30N 44°06' W 069°04'611.4
2018-Jul-16 21:00N 44°05' W 068°56'5 4.1
2018-Jul-16 19:51N 44°02' W 068°51'411.7
2018-Jul-16 19:29N 44°05' W 068°56'612.1
2018-Jul-16 19:00N 44°06' W 069°04'2 2.1
2018-Jul-16 18:07N 44°06' W 069°06'1 7.5
2018-Jul-16 18:00N 44°06' W 069°05'611.7
2018-Jul-16 17:30N 44°05' W 068°57'5 3.5
2018-Jul-16 16:03N 44°02' W 068°51'110.7
2018-Jul-16 16:00N 44°03' W 068°52'611.3
2018-Jul-16 15:30N 44°05' W 068°59'510.8
2018-Jul-16 15:00N 44°06' W 069°06'0 0.2
2018-Jul-16 14:05N 44°06' W 069°06'1 6.5
2018-Jul-16 14:00N 44°06' W 069°06'611.8
2018-Jul-16 13:30N 44°05' W 068°58'6 4.2
2018-Jul-16 12:11N 44°02' W 068°51'2 9.9
2018-Jul-16 12:00N 44°04' W 068°53'611.2
2018-Jul-16 11:29N 44°06' W 069°01'4 4.5
2018-Jul-16 10:33N 44°06' W 069°06'0 0.3
2018-Jul-16 10:25N 44°06' W 069°06'0 0.0
2018-Jul-15 21:41N 44°06' W 069°06'1 6.9
2018-Jul-15 21:30N 44°06' W 069°05'611.6
2018-Jul-15 21:01N 44°05' W 068°57'5 4.7
2018-Jul-15 19:55N 44°02' W 068°51'512.1
2018-Jul-15 19:30N 44°05' W 068°57'612.4
2018-Jul-15 19:00N 44°06' W 069°05'1 1.3
2018-Jul-15 18:11N 44°06' W 069°06'1 5.4
2018-Jul-15 18:00N 44°06' W 069°05'612.0
2018-Jul-15 17:30N 44°05' W 068°57'5 3.9
2018-Jul-15 16:07N 44°03' W 068°50'1 1.1
2018-Jul-15 15:39N 44°02' W 068°51'211.6
2018-Jul-15 15:29N 44°03' W 068°53'611.5
2018-Jul-15 15:00N 44°06' W 069°00'4 3.9
2018-Jul-15 13:53N 44°06' W 069°06'410.0
2018-Jul-15 13:30N 44°06' W 069°01'612.3
2018-Jul-15 13:00N 44°04' W 068°53'2 2.3
2018-Jul-15 12:08N 44°02' W 068°51'1 9.9
2018-Jul-15 12:00N 44°03' W 068°52'611.1
2018-Jul-15 11:28N 44°06' W 068°60'510.2
2018-Jul-15 10:59N 44°06' W 069°06'0 0.0
2018-Jul-14 21:40N 44°06' W 069°06'1 7.7
2018-Jul-14 21:30N 44°06' W 069°05'611.8
2018-Jul-14 20:59N 44°05' W 068°56'5 6.7
2018-Jul-14 20:16N 44°03' W 068°50'1 1.2
2018-Jul-14 19:48N 44°02' W 068°51'412.0
2018-Jul-14 19:25N 44°05' W 068°56'512.5
2018-Jul-14 18:59N 44°06' W 069°04'2 3.9
2018-Jul-14 18:29N 44°06' W 069°06'1 2.9
2018-Jul-14 17:59N 44°06' W 069°05'611.6
2018-Jul-14 17:29N 44°05' W 068°57'510.1
2018-Jul-14 16:59N 44°03' W 068°50'0 0.0
2018-Jul-14 16:08N 44°03' W 068°50'0 0.0
2018-Jul-14 15:53N 44°03' W 068°50'2 5.8
2018-Jul-14 15:30N 44°04' W 068°53'611.6
2018-Jul-14 14:59N 44°06' W 069°01'4 5.5
2018-Jul-14 14:14N 44°06' W 069°06'4 5.3
2018-Jul-14 13:30N 44°06' W 069°01'612.2
2018-Jul-14 13:00N 44°04' W 068°53'2 2.7
2018-Jul-14 12:09N 44°02' W 068°51'110.3
2018-Jul-14 12:00N 44°03' W 068°52'611.2
2018-Jul-14 11:30N 44°05' W 068°59'5 6.3
2018-Jul-14 10:41N 44°06' W 069°06'0 0.1
2018-Jul-14 10:28N 44°06' W 069°06'0 0.0
2018-Jul-13 21:40N 44°06' W 069°06'2 7.1
2018-Jul-13 21:27N 44°06' W 069°04'512.1
2018-Jul-13 21:00N 44°05' W 068°57'510.5
2018-Jul-13 20:30N 44°03' W 068°50'1 1.1
2018-Jul-13 19:59N 44°02' W 068°51'611.7
2018-Jul-13 19:30N 44°05' W 068°58'611.6
2018-Jul-13 19:00N 44°06' W 069°06'0 0.7
2018-Jul-13 18:22N 44°06' W 069°06'3 8.8
2018-Jul-13 18:00N 44°06' W 069°02'611.6
2018-Jul-13 17:30N 44°04' W 068°54'3 4.3
2018-Jul-13 16:45N 44°03' W 068°50'1 2.0
2018-Jul-13 16:30N 44°02' W 068°51'510.2
2018-Jul-13 15:59N 44°06' W 068°56'3 5.5
2018-Jul-13 15:30N 44°07' W 068°53'510.2
2018-Jul-13 15:00N 44°06' W 068°60'5 9.1
2018-Jul-13 14:27N 44°06' W 069°06'4 4.6
2018-Jul-13 13:29N 44°06' W 069°00'612.0
2018-Jul-13 12:57N 44°03' W 068°52'1 1.7
2018-Jul-13 12:12N 44°02' W 068°51'210.8
2018-Jul-13 12:00N 44°03' W 068°53'611.4
2018-Jul-13 11:30N 44°06' W 069°00'4 8.8
2018-Jul-13 11:00N 44°06' W 069°06'0 0.0
2018-Jul-12 21:44N 44°06' W 069°06'2 6.6
2018-Jul-12 21:29N 44°06' W 069°04'611.8
2018-Jul-12 21:00N 44°05' W 068°56'5 4.6
2018-Jul-12 19:59N 44°02' W 068°51'611.3
2018-Jul-12 19:30N 44°05' W 068°58'611.6
2018-Jul-12 18:58N 44°06' W 069°06'0 0.7
2018-Jul-12 18:26N 44°06' W 069°06'1 2.9
2018-Jul-12 18:00N 44°06' W 069°05'611.9
2018-Jul-12 17:31N 44°05' W 068°57'5 3.5
2018-Jul-12 16:10N 44°02' W 068°51'212.0
2018-Jul-12 15:59N 44°04' W 068°54'612.1
2018-Jul-12 15:30N 44°06' W 069°01'4 2.8
2018-Jul-12 14:10N 44°06' W 069°06'1 5.6
2018-Jul-12 14:00N 44°06' W 069°05'612.0
2018-Jul-12 13:30N 44°05' W 068°57'5 5.0
2018-Jul-12 12:25N 44°03' W 068°50'4 9.3
2018-Jul-12 12:00N 44°04' W 068°55'610.9
2018-Jul-12 11:30N 44°06' W 069°03'3 0.2
2018-Jul-11 21:39N 44°06' W 069°06'1 6.9
2018-Jul-11 21:31N 44°06' W 069°05'611.8
2018-Jul-11 21:00N 44°05' W 068°57'5 5.4
2018-Jul-11 20:02N 44°02' W 068°51'1 9.5
2018-Jul-11 19:58N 44°03' W 068°52'511.0
2018-Jul-11 19:30N 44°05' W 068°58'  

Dump ship's entire track history